sensor_id;sensor_type;location;lat;lon;timestamp;P1;durP1;ratioP1;P2;durP2;ratioP2
6019;SDS011;3038;51.122;6.840;2023-07-31T00:01:14;6.50;;;4.40;;
6019;SDS011;3038;51.122;6.840;2023-07-31T00:03:39;4.07;;;3.50;;
6019;SDS011;3038;51.122;6.840;2023-07-31T00:06:05;6.70;;;5.13;;
6019;SDS011;3038;51.122;6.840;2023-07-31T00:08:30;7.43;;;4.10;;
6019;SDS011;3038;51.122;6.840;2023-07-31T00:10:55;5.77;;;3.90;;
6019;SDS011;3038;51.122;6.840;2023-07-31T00:13:21;4.90;;;4.40;;
6019;SDS011;3038;51.122;6.840;2023-07-31T00:15:46;7.23;;;4.90;;
6019;SDS011;3038;51.122;6.840;2023-07-31T00:18:11;5.83;;;4.50;;
6019;SDS011;3038;51.122;6.840;2023-07-31T00:20:37;11.40;;;4.37;;
6019;SDS011;3038;51.122;6.840;2023-07-31T00:23:02;4.80;;;3.80;;
6019;SDS011;3038;51.122;6.840;2023-07-31T00:25:27;8.57;;;3.97;;
6019;SDS011;3038;51.122;6.840;2023-07-31T00:27:53;6.77;;;4.33;;
6019;SDS011;3038;51.122;6.840;2023-07-31T00:30:18;5.17;;;4.00;;
6019;SDS011;3038;51.122;6.840;2023-07-31T00:32:44;9.80;;;4.90;;
6019;SDS011;3038;51.122;6.840;2023-07-31T00:35:09;5.47;;;4.53;;
6019;SDS011;3038;51.122;6.840;2023-07-31T00:37:34;8.87;;;4.60;;
6019;SDS011;3038;51.122;6.840;2023-07-31T00:40:00;6.47;;;3.80;;
6019;SDS011;3038;51.122;6.840;2023-07-31T00:42:25;6.73;;;3.70;;
6019;SDS011;3038;51.122;6.840;2023-07-31T00:44:51;6.33;;;3.90;;
6019;SDS011;3038;51.122;6.840;2023-07-31T00:47:16;13.63;;;4.40;;
6019;SDS011;3038;51.122;6.840;2023-07-31T00:49:41;6.63;;;3.37;;
6019;SDS011;3038;51.122;6.840;2023-07-31T00:52:07;7.13;;;4.80;;
6019;SDS011;3038;51.122;6.840;2023-07-31T00:54:33;5.83;;;4.30;;
6019;SDS011;3038;51.122;6.840;2023-07-31T00:56:59;8.57;;;4.27;;
6019;SDS011;3038;51.122;6.840;2023-07-31T00:59:24;8.63;;;4.83;;
6019;SDS011;3038;51.122;6.840;2023-07-31T01:01:50;7.27;;;4.00;;
6019;SDS011;3038;51.122;6.840;2023-07-31T01:04:16;4.50;;;3.50;;
6019;SDS011;3038;51.122;6.840;2023-07-31T01:06:52;8.03;;;4.10;;
6019;SDS011;3038;51.122;6.840;2023-07-31T01:09:40;12.90;;;4.50;;
6019;SDS011;3038;51.122;6.840;2023-07-31T01:12:18;9.00;;;4.20;;
6019;SDS011;3038;51.122;6.840;2023-07-31T01:14:52;6.73;;;4.40;;
6019;SDS011;3038;51.122;6.840;2023-07-31T01:17:27;9.77;;;3.97;;
6019;SDS011;3038;51.122;6.840;2023-07-31T01:19:53;8.90;;;4.47;;
6019;SDS011;3038;51.122;6.840;2023-07-31T01:22:33;8.83;;;4.37;;
6019;SDS011;3038;51.122;6.840;2023-07-31T01:27:37;6.23;;;4.23;;
6019;SDS011;3038;51.122;6.840;2023-07-31T01:30:16;8.20;;;4.67;;
6019;SDS011;3038;51.122;6.840;2023-07-31T01:32:50;6.40;;;3.80;;
6019;SDS011;3038;51.122;6.840;2023-07-31T01:35:19;12.03;;;4.90;;
6019;SDS011;3038;51.122;6.840;2023-07-31T01:37:45;7.50;;;4.00;;
6019;SDS011;3038;51.122;6.840;2023-07-31T01:40:11;4.97;;;3.73;;
6019;SDS011;3038;51.122;6.840;2023-07-31T01:42:36;12.47;;;5.20;;
6019;SDS011;3038;51.122;6.840;2023-07-31T01:45:01;8.33;;;4.27;;
6019;SDS011;3038;51.122;6.840;2023-07-31T01:47:27;9.20;;;4.37;;
6019;SDS011;3038;51.122;6.840;2023-07-31T01:49:52;7.40;;;5.00;;
6019;SDS011;3038;51.122;6.840;2023-07-31T01:52:17;7.07;;;4.20;;
6019;SDS011;3038;51.122;6.840;2023-07-31T01:54:43;11.73;;;4.50;;
6019;SDS011;3038;51.122;6.840;2023-07-31T01:57:08;9.67;;;4.50;;
6019;SDS011;3038;51.122;6.840;2023-07-31T01:59:33;9.33;;;4.30;;
6019;SDS011;3038;51.122;6.840;2023-07-31T02:01:59;7.60;;;4.20;;
6019;SDS011;3038;51.122;6.840;2023-07-31T02:04:24;7.37;;;4.87;;
6019;SDS011;3038;51.122;6.840;2023-07-31T02:06:50;9.40;;;4.20;;
6019;SDS011;3038;51.122;6.840;2023-07-31T02:09:15;9.13;;;4.80;;
6019;SDS011;3038;51.122;6.840;2023-07-31T02:11:40;8.30;;;4.57;;
6019;SDS011;3038;51.122;6.840;2023-07-31T02:14:06;5.80;;;4.13;;
6019;SDS011;3038;51.122;6.840;2023-07-31T02:16:31;7.40;;;4.17;;
6019;SDS011;3038;51.122;6.840;2023-07-31T02:18:56;6.40;;;3.80;;
6019;SDS011;3038;51.122;6.840;2023-07-31T02:21:22;8.77;;;4.93;;
6019;SDS011;3038;51.122;6.840;2023-07-31T02:23:47;8.50;;;4.63;;
6019;SDS011;3038;51.122;6.840;2023-07-31T02:26:12;12.00;;;4.40;;
6019;SDS011;3038;51.122;6.840;2023-07-31T02:28:38;7.20;;;4.60;;
6019;SDS011;3038;51.122;6.840;2023-07-31T02:31:03;12.97;;;4.50;;
6019;SDS011;3038;51.122;6.840;2023-07-31T02:33:29;9.37;;;4.33;;
6019;SDS011;3038;51.122;6.840;2023-07-31T02:35:54;10.93;;;4.93;;
6019;SDS011;3038;51.122;6.840;2023-07-31T02:38:19;5.77;;;4.53;;
6019;SDS011;3038;51.122;6.840;2023-07-31T02:40:45;5.67;;;3.63;;
6019;SDS011;3038;51.122;6.840;2023-07-31T02:43:10;6.70;;;3.70;;
6019;SDS011;3038;51.122;6.840;2023-07-31T02:45:35;6.43;;;4.20;;
6019;SDS011;3038;51.122;6.840;2023-07-31T02:48:01;9.20;;;5.10;;
6019;SDS011;3038;51.122;6.840;2023-07-31T02:50:26;6.20;;;4.13;;
6019;SDS011;3038;51.122;6.840;2023-07-31T02:52:53;6.20;;;4.30;;
6019;SDS011;3038;51.122;6.840;2023-07-31T02:55:19;6.80;;;3.43;;
6019;SDS011;3038;51.122;6.840;2023-07-31T02:57:44;9.87;;;4.33;;
6019;SDS011;3038;51.122;6.840;2023-07-31T03:00:09;8.30;;;4.27;;
6019;SDS011;3038;51.122;6.840;2023-07-31T03:02:35;7.70;;;4.53;;
6019;SDS011;3038;51.122;6.840;2023-07-31T03:05:00;7.30;;;4.20;;
6019;SDS011;3038;51.122;6.840;2023-07-31T03:07:26;6.47;;;3.93;;
6019;SDS011;3038;51.122;6.840;2023-07-31T03:09:51;10.60;;;4.77;;
6019;SDS011;3038;51.122;6.840;2023-07-31T03:12:16;10.10;;;4.40;;
6019;SDS011;3038;51.122;6.840;2023-07-31T03:14:42;9.40;;;4.27;;
6019;SDS011;3038;51.122;6.840;2023-07-31T03:17:07;7.53;;;4.10;;
6019;SDS011;3038;51.122;6.840;2023-07-31T03:19:32;9.63;;;5.07;;
6019;SDS011;3038;51.122;6.840;2023-07-31T03:21:58;4.93;;;3.90;;
6019;SDS011;3038;51.122;6.840;2023-07-31T03:24:24;6.73;;;4.10;;
6019;SDS011;3038;51.122;6.840;2023-07-31T03:26:50;9.23;;;5.30;;
6019;SDS011;3038;51.122;6.840;2023-07-31T03:29:15;9.40;;;4.70;;
6019;SDS011;3038;51.122;6.840;2023-07-31T03:31:41;7.13;;;4.20;;
6019;SDS011;3038;51.122;6.840;2023-07-31T03:34:06;4.90;;;4.00;;
6019;SDS011;3038;51.122;6.840;2023-07-31T03:36:31;6.63;;;4.30;;
6019;SDS011;3038;51.122;6.840;2023-07-31T03:38:57;6.73;;;4.57;;
6019;SDS011;3038;51.122;6.840;2023-07-31T03:41:22;8.57;;;4.50;;
6019;SDS011;3038;51.122;6.840;2023-07-31T03:43:49;8.33;;;5.07;;
6019;SDS011;3038;51.122;6.840;2023-07-31T03:46:16;9.47;;;5.93;;
6019;SDS011;3038;51.122;6.840;2023-07-31T03:48:42;9.53;;;4.77;;
6019;SDS011;3038;51.122;6.840;2023-07-31T03:51:07;10.00;;;5.50;;
6019;SDS011;3038;51.122;6.840;2023-07-31T03:53:32;7.60;;;5.07;;
6019;SDS011;3038;51.122;6.840;2023-07-31T03:55:58;11.57;;;5.30;;
6019;SDS011;3038;51.122;6.840;2023-07-31T03:58:23;6.37;;;4.70;;
6019;SDS011;3038;51.122;6.840;2023-07-31T04:00:48;9.10;;;5.33;;
6019;SDS011;3038;51.122;6.840;2023-07-31T04:03:14;11.57;;;4.90;;
6019;SDS011;3038;51.122;6.840;2023-07-31T04:05:39;11.40;;;5.63;;
6019;SDS011;3038;51.122;6.840;2023-07-31T04:08:05;6.93;;;5.03;;
6019;SDS011;3038;51.122;6.840;2023-07-31T04:10:30;9.57;;;5.27;;
6019;SDS011;3038;51.122;6.840;2023-07-31T04:12:58;8.13;;;4.83;;
6019;SDS011;3038;51.122;6.840;2023-07-31T04:15:23;6.97;;;4.57;;
6019;SDS011;3038;51.122;6.840;2023-07-31T04:17:48;7.93;;;4.60;;
6019;SDS011;3038;51.122;6.840;2023-07-31T04:20:14;11.07;;;5.17;;
6019;SDS011;3038;51.122;6.840;2023-07-31T04:22:39;8.37;;;5.37;;
6019;SDS011;3038;51.122;6.840;2023-07-31T04:25:05;10.80;;;7.10;;
6019;SDS011;3038;51.122;6.840;2023-07-31T04:27:30;7.73;;;5.33;;
6019;SDS011;3038;51.122;6.840;2023-07-31T04:29:56;6.90;;;5.20;;
6019;SDS011;3038;51.122;6.840;2023-07-31T04:32:21;14.47;;;5.23;;
6019;SDS011;3038;51.122;6.840;2023-07-31T04:34:47;9.70;;;5.33;;
6019;SDS011;3038;51.122;6.840;2023-07-31T04:37:12;7.50;;;5.67;;
6019;SDS011;3038;51.122;6.840;2023-07-31T04:39:37;7.87;;;5.20;;
6019;SDS011;3038;51.122;6.840;2023-07-31T04:42:04;9.97;;;5.80;;
6019;SDS011;3038;51.122;6.840;2023-07-31T04:44:30;5.63;;;5.07;;
6019;SDS011;3038;51.122;6.840;2023-07-31T04:46:55;9.97;;;4.87;;
6019;SDS011;3038;51.122;6.840;2023-07-31T04:49:20;6.63;;;5.17;;
6019;SDS011;3038;51.122;6.840;2023-07-31T04:51:47;7.87;;;5.17;;
6019;SDS011;3038;51.122;6.840;2023-07-31T04:54:12;6.13;;;5.53;;
6019;SDS011;3038;51.122;6.840;2023-07-31T04:56:39;9.60;;;5.00;;
6019;SDS011;3038;51.122;6.840;2023-07-31T04:59:06;8.17;;;5.10;;
6019;SDS011;3038;51.122;6.840;2023-07-31T05:01:31;8.20;;;5.10;;
6019;SDS011;3038;51.122;6.840;2023-07-31T05:03:56;6.67;;;5.47;;
6019;SDS011;3038;51.122;6.840;2023-07-31T05:06:22;10.90;;;6.80;;
6019;SDS011;3038;51.122;6.840;2023-07-31T05:08:47;9.47;;;6.00;;
6019;SDS011;3038;51.122;6.840;2023-07-31T05:11:12;7.80;;;5.63;;
6019;SDS011;3038;51.122;6.840;2023-07-31T05:13:38;9.53;;;4.80;;
6019;SDS011;3038;51.122;6.840;2023-07-31T05:16:03;11.33;;;5.87;;
6019;SDS011;3038;51.122;6.840;2023-07-31T05:18:28;7.20;;;4.60;;
6019;SDS011;3038;51.122;6.840;2023-07-31T05:20:54;6.60;;;6.00;;
6019;SDS011;3038;51.122;6.840;2023-07-31T05:23:19;10.83;;;5.93;;
6019;SDS011;3038;51.122;6.840;2023-07-31T05:25:44;8.47;;;5.53;;
6019;SDS011;3038;51.122;6.840;2023-07-31T05:28:10;8.80;;;5.77;;
6019;SDS011;3038;51.122;6.840;2023-07-31T05:30:36;7.67;;;5.43;;
6019;SDS011;3038;51.122;6.840;2023-07-31T05:33:02;7.43;;;5.00;;
6019;SDS011;3038;51.122;6.840;2023-07-31T05:35:27;7.60;;;5.07;;
6019;SDS011;3038;51.122;6.840;2023-07-31T05:37:53;6.50;;;5.40;;
6019;SDS011;3038;51.122;6.840;2023-07-31T05:40:18;7.00;;;5.23;;
6019;SDS011;3038;51.122;6.840;2023-07-31T05:42:43;6.27;;;5.07;;
6019;SDS011;3038;51.122;6.840;2023-07-31T05:45:09;5.67;;;4.40;;
6019;SDS011;3038;51.122;6.840;2023-07-31T05:47:34;5.70;;;4.97;;
6019;SDS011;3038;51.122;6.840;2023-07-31T05:50:00;6.17;;;4.60;;
6019;SDS011;3038;51.122;6.840;2023-07-31T05:52:26;6.40;;;4.90;;
6019;SDS011;3038;51.122;6.840;2023-07-31T05:54:51;5.97;;;5.00;;
6019;SDS011;3038;51.122;6.840;2023-07-31T05:57:17;8.67;;;4.73;;
6019;SDS011;3038;51.122;6.840;2023-07-31T05:59:42;7.43;;;4.70;;
6019;SDS011;3038;51.122;6.840;2023-07-31T06:02:07;8.13;;;5.30;;
6019;SDS011;3038;51.122;6.840;2023-07-31T06:04:33;7.40;;;5.30;;
6019;SDS011;3038;51.122;6.840;2023-07-31T06:06:58;7.33;;;4.40;;
6019;SDS011;3038;51.122;6.840;2023-07-31T06:09:24;5.93;;;4.67;;
6019;SDS011;3038;51.122;6.840;2023-07-31T06:11:49;9.20;;;6.30;;
6019;SDS011;3038;51.122;6.840;2023-07-31T06:14:15;5.30;;;4.80;;
6019;SDS011;3038;51.122;6.840;2023-07-31T06:16:40;6.50;;;5.30;;
6019;SDS011;3038;51.122;6.840;2023-07-31T06:19:06;7.80;;;5.37;;
6019;SDS011;3038;51.122;6.840;2023-07-31T06:21:32;6.10;;;5.50;;
6019;SDS011;3038;51.122;6.840;2023-07-31T06:23:58;5.83;;;5.23;;
6019;SDS011;3038;51.122;6.840;2023-07-31T06:26:23;6.40;;;5.40;;
6019;SDS011;3038;51.122;6.840;2023-07-31T06:28:48;7.13;;;5.87;;
6019;SDS011;3038;51.122;6.840;2023-07-31T06:31:14;10.13;;;5.60;;
6019;SDS011;3038;51.122;6.840;2023-07-31T06:33:39;8.50;;;5.10;;
6019;SDS011;3038;51.122;6.840;2023-07-31T06:36:04;8.07;;;5.47;;
6019;SDS011;3038;51.122;6.840;2023-07-31T06:38:30;7.67;;;5.27;;
6019;SDS011;3038;51.122;6.840;2023-07-31T06:40:55;7.67;;;5.50;;
6019;SDS011;3038;51.122;6.840;2023-07-31T06:43:22;6.37;;;5.00;;
6019;SDS011;3038;51.122;6.840;2023-07-31T06:45:47;8.23;;;5.23;;
6019;SDS011;3038;51.122;6.840;2023-07-31T06:48:16;6.77;;;4.97;;
6019;SDS011;3038;51.122;6.840;2023-07-31T06:50:41;8.80;;;5.47;;
6019;SDS011;3038;51.122;6.840;2023-07-31T06:53:07;7.10;;;4.53;;
6019;SDS011;3038;51.122;6.840;2023-07-31T06:55:32;9.47;;;5.40;;
6019;SDS011;3038;51.122;6.840;2023-07-31T06:57:57;8.00;;;5.73;;
6019;SDS011;3038;51.122;6.840;2023-07-31T07:00:23;7.60;;;5.03;;
6019;SDS011;3038;51.122;6.840;2023-07-31T07:02:49;9.07;;;5.20;;
6019;SDS011;3038;51.122;6.840;2023-07-31T07:05:15;10.70;;;4.70;;
6019;SDS011;3038;51.122;6.840;2023-07-31T07:07:41;7.43;;;4.07;;
6019;SDS011;3038;51.122;6.840;2023-07-31T07:10:07;6.53;;;4.47;;
6019;SDS011;3038;51.122;6.840;2023-07-31T07:12:33;11.23;;;4.23;;
6019;SDS011;3038;51.122;6.840;2023-07-31T07:14:59;7.17;;;5.50;;
6019;SDS011;3038;51.122;6.840;2023-07-31T07:17:25;5.03;;;4.53;;
6019;SDS011;3038;51.122;6.840;2023-07-31T07:19:51;5.37;;;3.97;;
6019;SDS011;3038;51.122;6.840;2023-07-31T07:22:17;10.30;;;4.50;;
6019;SDS011;3038;51.122;6.840;2023-07-31T07:24:43;6.00;;;4.10;;
6019;SDS011;3038;51.122;6.840;2023-07-31T07:27:08;5.57;;;5.07;;
6019;SDS011;3038;51.122;6.840;2023-07-31T07:29:34;6.27;;;3.90;;
6019;SDS011;3038;51.122;6.840;2023-07-31T07:32:00;7.50;;;4.53;;
6019;SDS011;3038;51.122;6.840;2023-07-31T07:34:26;5.93;;;4.23;;
6019;SDS011;3038;51.122;6.840;2023-07-31T07:36:52;6.40;;;4.97;;
6019;SDS011;3038;51.122;6.840;2023-07-31T07:39:17;4.50;;;3.30;;
6019;SDS011;3038;51.122;6.840;2023-07-31T07:41:42;7.73;;;4.70;;
6019;SDS011;3038;51.122;6.840;2023-07-31T07:44:08;5.17;;;4.50;;
6019;SDS011;3038;51.122;6.840;2023-07-31T07:46:33;8.80;;;4.53;;
6019;SDS011;3038;51.122;6.840;2023-07-31T07:48:59;8.90;;;4.97;;
6019;SDS011;3038;51.122;6.840;2023-07-31T07:51:24;7.43;;;5.00;;
6019;SDS011;3038;51.122;6.840;2023-07-31T07:53:50;5.67;;;4.87;;
6019;SDS011;3038;51.122;6.840;2023-07-31T07:56:15;10.20;;;5.20;;
6019;SDS011;3038;51.122;6.840;2023-07-31T07:58:40;8.50;;;4.83;;
6019;SDS011;3038;51.122;6.840;2023-07-31T08:01:06;8.00;;;5.10;;
6019;SDS011;3038;51.122;6.840;2023-07-31T08:03:31;7.20;;;4.77;;
6019;SDS011;3038;51.122;6.840;2023-07-31T08:06:00;7.10;;;4.60;;
6019;SDS011;3038;51.122;6.840;2023-07-31T08:08:25;6.93;;;4.73;;
6019;SDS011;3038;51.122;6.840;2023-07-31T08:10:51;8.27;;;4.77;;
6019;SDS011;3038;51.122;6.840;2023-07-31T08:13:17;6.03;;;4.10;;
6019;SDS011;3038;51.122;6.840;2023-07-31T08:15:42;8.13;;;4.13;;
6019;SDS011;3038;51.122;6.840;2023-07-31T08:18:08;5.00;;;4.47;;
6019;SDS011;3038;51.122;6.840;2023-07-31T08:20:33;9.30;;;3.80;;
6019;SDS011;3038;51.122;6.840;2023-07-31T08:22:59;6.43;;;4.17;;
6019;SDS011;3038;51.122;6.840;2023-07-31T08:25:24;6.20;;;3.80;;
6019;SDS011;3038;51.122;6.840;2023-07-31T08:27:49;4.63;;;3.50;;
6019;SDS011;3038;51.122;6.840;2023-07-31T08:30:17;4.57;;;4.03;;
6019;SDS011;3038;51.122;6.840;2023-07-31T08:32:43;6.40;;;3.77;;
6019;SDS011;3038;51.122;6.840;2023-07-31T08:35:08;4.73;;;3.57;;
6019;SDS011;3038;51.122;6.840;2023-07-31T08:37:34;4.90;;;4.43;;
6019;SDS011;3038;51.122;6.840;2023-07-31T08:39:59;6.43;;;3.90;;
6019;SDS011;3038;51.122;6.840;2023-07-31T08:42:25;6.20;;;4.00;;
6019;SDS011;3038;51.122;6.840;2023-07-31T08:44:50;5.23;;;4.10;;
6019;SDS011;3038;51.122;6.840;2023-07-31T08:47:17;4.63;;;4.23;;
6019;SDS011;3038;51.122;6.840;2023-07-31T08:49:45;5.00;;;4.20;;
6019;SDS011;3038;51.122;6.840;2023-07-31T08:52:12;6.27;;;4.30;;
6019;SDS011;3038;51.122;6.840;2023-07-31T08:54:37;5.33;;;3.80;;
6019;SDS011;3038;51.122;6.840;2023-07-31T08:57:03;8.43;;;4.60;;
6019;SDS011;3038;51.122;6.840;2023-07-31T08:59:30;4.00;;;3.60;;
6019;SDS011;3038;51.122;6.840;2023-07-31T09:01:57;5.00;;;3.80;;
6019;SDS011;3038;51.122;6.840;2023-07-31T09:04:30;6.60;;;4.60;;
6019;SDS011;3038;51.122;6.840;2023-07-31T09:14:20;5.30;;;3.90;;
6019;SDS011;3038;51.122;6.840;2023-07-31T09:16:53;4.20;;;3.43;;
6019;SDS011;3038;51.122;6.840;2023-07-31T09:19:26;6.10;;;4.43;;
6019;SDS011;3038;51.122;6.840;2023-07-31T09:21:53;4.50;;;3.83;;
6019;SDS011;3038;51.122;6.840;2023-07-31T09:24:25;10.70;;;3.80;;
6019;SDS011;3038;51.122;6.840;2023-07-31T09:26:53;5.10;;;4.37;;
6019;SDS011;3038;51.122;6.840;2023-07-31T09:29:19;6.93;;;3.80;;
6019;SDS011;3038;51.122;6.840;2023-07-31T09:31:45;7.43;;;4.07;;
6019;SDS011;3038;51.122;6.840;2023-07-31T09:34:10;5.40;;;3.83;;
6019;SDS011;3038;51.122;6.840;2023-07-31T09:36:40;5.00;;;4.50;;
6019;SDS011;3038;51.122;6.840;2023-07-31T09:39:10;6.60;;;4.30;;
6019;SDS011;3038;51.122;6.840;2023-07-31T09:41:40;5.97;;;4.60;;
6019;SDS011;3038;51.122;6.840;2023-07-31T09:44:07;7.00;;;4.00;;
6019;SDS011;3038;51.122;6.840;2023-07-31T09:46:34;7.97;;;3.53;;
6019;SDS011;3038;51.122;6.840;2023-07-31T09:51:30;4.20;;;3.17;;
6019;SDS011;3038;51.122;6.840;2023-07-31T09:53:56;4.30;;;3.80;;
6019;SDS011;3038;51.122;6.840;2023-07-31T09:56:21;3.43;;;3.13;;
6019;SDS011;3038;51.122;6.840;2023-07-31T09:58:48;5.03;;;4.43;;
6019;SDS011;3038;51.122;6.840;2023-07-31T10:01:15;6.00;;;4.20;;
6019;SDS011;3038;51.122;6.840;2023-07-31T10:03:40;5.20;;;3.80;;
6019;SDS011;3038;51.122;6.840;2023-07-31T10:06:09;9.03;;;3.97;;
6019;SDS011;3038;51.122;6.840;2023-07-31T10:08:35;5.83;;;4.50;;
6019;SDS011;3038;51.122;6.840;2023-07-31T10:11:02;9.23;;;3.73;;
6019;SDS011;3038;51.122;6.840;2023-07-31T10:13:30;4.27;;;3.57;;
6019;SDS011;3038;51.122;6.840;2023-07-31T10:15:58;3.80;;;3.50;;
6019;SDS011;3038;51.122;6.840;2023-07-31T10:18:25;7.53;;;4.40;;
6019;SDS011;3038;51.122;6.840;2023-07-31T10:20:51;7.00;;;4.50;;
6019;SDS011;3038;51.122;6.840;2023-07-31T10:23:17;5.73;;;3.57;;
6019;SDS011;3038;51.122;6.840;2023-07-31T10:25:43;5.53;;;4.40;;
6019;SDS011;3038;51.122;6.840;2023-07-31T10:28:09;5.57;;;4.13;;
6019;SDS011;3038;51.122;6.840;2023-07-31T10:30:36;5.13;;;3.77;;
6019;SDS011;3038;51.122;6.840;2023-07-31T10:33:04;8.00;;;4.40;;
6019;SDS011;3038;51.122;6.840;2023-07-31T10:35:31;7.13;;;4.37;;
6019;SDS011;3038;51.122;6.840;2023-07-31T10:37:56;6.00;;;4.10;;
6019;SDS011;3038;51.122;6.840;2023-07-31T10:40:34;5.50;;;3.80;;
6019;SDS011;3038;51.122;6.840;2023-07-31T10:43:01;7.80;;;4.00;;
6019;SDS011;3038;51.122;6.840;2023-07-31T10:45:34;4.23;;;3.83;;
6019;SDS011;3038;51.122;6.840;2023-07-31T10:48:04;6.83;;;4.20;;
6019;SDS011;3038;51.122;6.840;2023-07-31T10:50:46;6.00;;;4.20;;
6019;SDS011;3038;51.122;6.840;2023-07-31T10:53:24;3.73;;;3.20;;
6019;SDS011;3038;51.122;6.840;2023-07-31T10:55:59;5.27;;;3.80;;
6019;SDS011;3038;51.122;6.840;2023-07-31T10:58:26;3.27;;;2.90;;
6019;SDS011;3038;51.122;6.840;2023-07-31T11:00:55;3.93;;;3.53;;
6019;SDS011;3038;51.122;6.840;2023-07-31T11:03:24;3.63;;;3.33;;
6019;SDS011;3038;51.122;6.840;2023-07-31T11:06:06;4.80;;;3.10;;
6019;SDS011;3038;51.122;6.840;2023-07-31T11:08:32;5.00;;;2.53;;
6019;SDS011;3038;51.122;6.840;2023-07-31T11:13:28;2.60;;;2.00;;
6019;SDS011;3038;51.122;6.840;2023-07-31T11:15:57;2.40;;;1.80;;
6019;SDS011;3038;51.122;6.840;2023-07-31T11:18:23;3.47;;;2.30;;
6019;SDS011;3038;51.122;6.840;2023-07-31T11:20:48;3.13;;;2.20;;
6019;SDS011;3038;51.122;6.840;2023-07-31T11:23:16;2.23;;;1.90;;
6019;SDS011;3038;51.122;6.840;2023-07-31T11:25:42;2.83;;;2.00;;
6019;SDS011;3038;51.122;6.840;2023-07-31T11:28:14;1.90;;;1.70;;
6019;SDS011;3038;51.122;6.840;2023-07-31T11:30:41;1.70;;;1.60;;
6019;SDS011;3038;51.122;6.840;2023-07-31T11:33:07;3.10;;;1.73;;
6019;SDS011;3038;51.122;6.840;2023-07-31T11:35:35;1.80;;;1.40;;
6019;SDS011;3038;51.122;6.840;2023-07-31T11:38:06;1.70;;;1.53;;
6019;SDS011;3038;51.122;6.840;2023-07-31T11:40:40;2.73;;;1.60;;
6019;SDS011;3038;51.122;6.840;2023-07-31T11:43:06;2.33;;;1.80;;
6019;SDS011;3038;51.122;6.840;2023-07-31T11:45:32;1.77;;;1.40;;
6019;SDS011;3038;51.122;6.840;2023-07-31T11:48:00;2.67;;;1.90;;
6019;SDS011;3038;51.122;6.840;2023-07-31T11:50:26;1.67;;;1.27;;
6019;SDS011;3038;51.122;6.840;2023-07-31T11:52:57;2.70;;;1.87;;
6019;SDS011;3038;51.122;6.840;2023-07-31T11:55:28;1.70;;;1.60;;
6019;SDS011;3038;51.122;6.840;2023-07-31T11:57:54;1.80;;;1.53;;
6019;SDS011;3038;51.122;6.840;2023-07-31T12:00:22;2.17;;;1.53;;
6019;SDS011;3038;51.122;6.840;2023-07-31T12:02:48;2.50;;;1.60;;
6019;SDS011;3038;51.122;6.840;2023-07-31T12:05:13;2.60;;;1.90;;
6019;SDS011;3038;51.122;6.840;2023-07-31T12:10:10;2.70;;;1.77;;
6019;SDS011;3038;51.122;6.840;2023-07-31T12:12:36;2.60;;;2.10;;
6019;SDS011;3038;51.122;6.840;2023-07-31T12:15:02;2.30;;;2.07;;
6019;SDS011;3038;51.122;6.840;2023-07-31T12:17:27;2.70;;;2.50;;
6019;SDS011;3038;51.122;6.840;2023-07-31T12:19:52;4.97;;;2.10;;
6019;SDS011;3038;51.122;6.840;2023-07-31T12:22:19;2.83;;;2.43;;
6019;SDS011;3038;51.122;6.840;2023-07-31T12:24:46;2.33;;;2.13;;
6019;SDS011;3038;51.122;6.840;2023-07-31T12:27:11;5.33;;;2.73;;
6019;SDS011;3038;51.122;6.840;2023-07-31T12:29:41;2.60;;;2.40;;
6019;SDS011;3038;51.122;6.840;2023-07-31T12:32:24;2.87;;;2.27;;
6019;SDS011;3038;51.122;6.840;2023-07-31T12:34:53;3.27;;;2.43;;
6019;SDS011;3038;51.122;6.840;2023-07-31T12:37:18;2.83;;;2.50;;
6019;SDS011;3038;51.122;6.840;2023-07-31T12:39:46;3.33;;;3.03;;
6019;SDS011;3038;51.122;6.840;2023-07-31T12:42:11;5.33;;;3.33;;
6019;SDS011;3038;51.122;6.840;2023-07-31T12:44:36;3.77;;;2.80;;
6019;SDS011;3038;51.122;6.840;2023-07-31T12:47:02;2.87;;;2.37;;
6019;SDS011;3038;51.122;6.840;2023-07-31T12:49:29;3.80;;;3.40;;
6019;SDS011;3038;51.122;6.840;2023-07-31T12:51:54;3.50;;;3.20;;
6019;SDS011;3038;51.122;6.840;2023-07-31T12:54:19;3.33;;;3.03;;
6019;SDS011;3038;51.122;6.840;2023-07-31T12:56:45;3.63;;;2.93;;
6019;SDS011;3038;51.122;6.840;2023-07-31T12:59:10;3.00;;;2.70;;
6019;SDS011;3038;51.122;6.840;2023-07-31T13:01:36;3.73;;;3.23;;
6019;SDS011;3038;51.122;6.840;2023-07-31T13:04:01;3.43;;;2.90;;
6019;SDS011;3038;51.122;6.840;2023-07-31T13:06:26;4.90;;;3.80;;
6019;SDS011;3038;51.122;6.840;2023-07-31T13:08:52;4.80;;;3.10;;
6019;SDS011;3038;51.122;6.840;2023-07-31T13:11:17;3.97;;;3.60;;
6019;SDS011;3038;51.122;6.840;2023-07-31T13:13:42;4.00;;;3.30;;
6019;SDS011;3038;51.122;6.840;2023-07-31T13:16:08;4.30;;;3.70;;
6019;SDS011;3038;51.122;6.840;2023-07-31T13:18:33;4.43;;;3.57;;
6019;SDS011;3038;51.122;6.840;2023-07-31T13:20:58;4.73;;;3.37;;
6019;SDS011;3038;51.122;6.840;2023-07-31T13:23:24;3.83;;;3.47;;
6019;SDS011;3038;51.122;6.840;2023-07-31T13:25:49;3.93;;;3.53;;
6019;SDS011;3038;51.122;6.840;2023-07-31T13:28:14;5.40;;;4.13;;
6019;SDS011;3038;51.122;6.840;2023-07-31T13:30:40;3.27;;;2.97;;
6019;SDS011;3038;51.122;6.840;2023-07-31T13:33:05;3.40;;;3.10;;
6019;SDS011;3038;51.122;6.840;2023-07-31T13:35:31;5.63;;;3.83;;
6019;SDS011;3038;51.122;6.840;2023-07-31T13:37:56;3.60;;;3.30;;
6019;SDS011;3038;51.122;6.840;2023-07-31T13:40:22;4.47;;;3.50;;
6019;SDS011;3038;51.122;6.840;2023-07-31T13:42:47;5.70;;;3.60;;
6019;SDS011;3038;51.122;6.840;2023-07-31T13:45:13;3.50;;;3.20;;
6019;SDS011;3038;51.122;6.840;2023-07-31T13:47:39;5.10;;;3.87;;
6019;SDS011;3038;51.122;6.840;2023-07-31T13:50:04;3.67;;;3.37;;
6019;SDS011;3038;51.122;6.840;2023-07-31T13:52:30;3.60;;;3.30;;
6019;SDS011;3038;51.122;6.840;2023-07-31T13:58:04;4.20;;;3.63;;
6019;SDS011;3038;51.122;6.840;2023-07-31T14:00:30;4.20;;;3.80;;
6019;SDS011;3038;51.122;6.840;2023-07-31T14:02:55;3.30;;;2.97;;
6019;SDS011;3038;51.122;6.840;2023-07-31T14:05:20;3.60;;;3.30;;
6019;SDS011;3038;51.122;6.840;2023-07-31T14:07:46;3.50;;;3.00;;
6019;SDS011;3038;51.122;6.840;2023-07-31T14:10:11;4.47;;;3.03;;
6019;SDS011;3038;51.122;6.840;2023-07-31T14:12:36;3.37;;;3.03;;
6019;SDS011;3038;51.122;6.840;2023-07-31T14:15:02;3.20;;;2.90;;
6019;SDS011;3038;51.122;6.840;2023-07-31T14:17:28;3.50;;;2.90;;
6019;SDS011;3038;51.122;6.840;2023-07-31T14:19:53;3.20;;;2.90;;
6019;SDS011;3038;51.122;6.840;2023-07-31T14:22:31;4.13;;;2.83;;
6019;SDS011;3038;51.122;6.840;2023-07-31T14:24:58;3.20;;;2.73;;
6019;SDS011;3038;51.122;6.840;2023-07-31T14:27:24;3.10;;;2.80;;
6019;SDS011;3038;51.122;6.840;2023-07-31T14:29:49;3.97;;;3.60;;
6019;SDS011;3038;51.122;6.840;2023-07-31T14:32:14;4.37;;;3.20;;
6019;SDS011;3038;51.122;6.840;2023-07-31T14:34:40;3.70;;;3.40;;
6019;SDS011;3038;51.122;6.840;2023-07-31T14:37:06;4.20;;;3.80;;
6019;SDS011;3038;51.122;6.840;2023-07-31T14:39:31;5.10;;;3.53;;
6019;SDS011;3038;51.122;6.840;2023-07-31T14:41:56;4.27;;;3.80;;
6019;SDS011;3038;51.122;6.840;2023-07-31T14:44:22;4.90;;;3.80;;
6019;SDS011;3038;51.122;6.840;2023-07-31T14:46:47;4.90;;;4.50;;
6019;SDS011;3038;51.122;6.840;2023-07-31T14:49:12;7.90;;;4.70;;
6019;SDS011;3038;51.122;6.840;2023-07-31T14:51:39;6.83;;;5.50;;
6019;SDS011;3038;51.122;6.840;2023-07-31T14:54:04;6.13;;;4.10;;
6019;SDS011;3038;51.122;6.840;2023-07-31T14:56:29;5.17;;;4.67;;
6019;SDS011;3038;51.122;6.840;2023-07-31T14:58:55;5.00;;;4.60;;
6019;SDS011;3038;51.122;6.840;2023-07-31T15:01:20;5.07;;;4.23;;
6019;SDS011;3038;51.122;6.840;2023-07-31T15:03:46;5.00;;;4.50;;
6019;SDS011;3038;51.122;6.840;2023-07-31T15:06:11;5.70;;;4.80;;
6019;SDS011;3038;51.122;6.840;2023-07-31T15:08:37;5.10;;;4.70;;
6019;SDS011;3038;51.122;6.840;2023-07-31T15:11:03;5.63;;;5.10;;
6019;SDS011;3038;51.122;6.840;2023-07-31T15:13:28;5.50;;;4.70;;
6019;SDS011;3038;51.122;6.840;2023-07-31T15:15:54;6.03;;;5.53;;
6019;SDS011;3038;51.122;6.840;2023-07-31T15:18:20;6.07;;;5.47;;
6019;SDS011;3038;51.122;6.840;2023-07-31T15:20:46;7.77;;;4.20;;
6019;SDS011;3038;51.122;6.840;2023-07-31T15:23:11;5.57;;;5.10;;
6019;SDS011;3038;51.122;6.840;2023-07-31T15:25:37;6.63;;;4.57;;
6019;SDS011;3038;51.122;6.840;2023-07-31T15:28:02;5.90;;;5.40;;
6019;SDS011;3038;51.122;6.840;2023-07-31T15:30:27;4.93;;;4.43;;